createdAt,value
2018-12-04T00:00:49.892Z,98288.00
2018-12-04T00:02:56.000Z,98285.00
2018-12-04T00:05:01.864Z,98300.00
2018-12-04T00:07:07.683Z,98289.00
2018-12-04T00:09:13.521Z,98294.00
2018-12-04T00:11:19.177Z,98303.00
2018-12-04T00:13:25.041Z,98315.00
2018-12-04T00:15:31.010Z,98332.00
2018-12-04T00:17:36.907Z,98362.00
2018-12-04T00:19:42.782Z,98375.00
2018-12-04T00:21:48.592Z,98387.00
2018-12-04T00:23:54.469Z,98405.00
2018-12-04T00:26:00.628Z,98411.00
2018-12-04T00:28:06.589Z,98421.00
2018-12-04T00:30:12.361Z,98426.00
2018-12-04T00:32:17.941Z,98450.00
2018-12-04T00:34:23.529Z,98464.00
2018-12-04T00:36:29.367Z,98478.00
2018-12-04T00:38:35.199Z,98486.00
2018-12-04T00:40:41.070Z,98495.00
2018-12-04T00:42:48.130Z,98496.00
2018-12-04T00:44:53.960Z,98503.00
2018-12-04T00:46:59.607Z,98513.00
2018-12-04T00:49:05.907Z,98522.00
2018-12-04T00:51:11.486Z,98537.00
2018-12-04T00:53:17.081Z,98538.00
2018-12-04T00:55:22.920Z,98551.00
2018-12-04T00:57:28.754Z,98562.00
2018-12-04T00:59:34.379Z,98572.00
2018-12-04T01:01:40.297Z,98571.00
2018-12-04T01:03:46.133Z,98582.00
2018-12-04T01:05:51.853Z,98593.00
2018-12-04T01:07:57.699Z,98593.00
2018-12-04T01:10:03.554Z,98597.00
2018-12-04T01:12:09.674Z,98613.00
2018-12-04T01:14:15.270Z,98602.00
2018-12-04T01:16:20.883Z,98619.00
2018-12-04T01:18:26.710Z,98626.00
2018-12-04T01:20:33.381Z,98636.00
2018-12-04T01:22:39.220Z,98653.00
2018-12-04T01:24:45.037Z,98656.00
2018-12-04T01:26:50.945Z,98667.00
2018-12-04T01:28:56.788Z,98674.00
2018-12-04T01:31:02.457Z,98681.00
2018-12-04T01:33:08.034Z,98687.00
2018-12-04T01:35:13.879Z,98698.00
2018-12-04T01:37:19.746Z,98699.00
2018-12-04T01:39:25.596Z,98695.00
2018-12-04T01:41:31.419Z,98703.00
2018-12-04T01:43:37.505Z,98703.00
2018-12-04T01:45:43.225Z,98713.00
2018-12-04T01:47:48.800Z,98715.00
2018-12-04T01:49:54.388Z,98724.00
2018-12-04T01:52:00.679Z,98735.00
2018-12-04T01:54:06.450Z,98739.00
2018-12-04T01:56:12.892Z,98743.00
2018-12-04T01:58:19.270Z,98753.00
2018-12-04T02:00:26.828Z,98751.00
2018-12-04T02:02:35.420Z,98747.00
2018-12-04T02:04:45.201Z,98748.00
2018-12-04T02:06:53.644Z,98758.00
2018-12-04T02:08:59.490Z,98752.00
2018-12-04T02:11:05.230Z,98750.00
2018-12-04T02:13:11.207Z,98756.00
2018-12-04T02:15:17.369Z,98761.00
2018-12-04T02:17:23.449Z,98774.00
2018-12-04T02:19:29.326Z,98764.00
2018-12-04T02:21:35.196Z,98769.00
2018-12-04T02:23:41.337Z,98775.00
2018-12-04T02:25:47.745Z,98781.00
2018-12-04T02:27:53.569Z,98793.00
2018-12-04T02:29:59.706Z,98793.00
2018-12-04T02:32:05.625Z,98798.00
2018-12-04T02:34:11.445Z,98800.00
2018-12-04T02:36:17.312Z,98798.00
2018-12-04T02:38:22.906Z,98802.00
2018-12-04T02:40:28.768Z,98808.00
2018-12-04T02:42:34.623Z,98826.00
2018-12-04T02:44:40.451Z,98830.00
2018-12-04T02:46:46.043Z,98833.00
2018-12-04T02:48:51.874Z,98836.00
2018-12-04T02:50:57.690Z,98841.00
2018-12-04T02:53:03.934Z,98835.00
2018-12-04T02:55:09.595Z,98848.00
2018-12-04T02:57:16.609Z,98847.00
2018-12-04T02:59:22.502Z,98847.00
2018-12-04T03:01:28.094Z,98852.00
2018-12-04T03:03:34.040Z,98851.00
2018-12-04T03:05:39.894Z,98861.00
2018-12-04T03:07:46.062Z,98855.00
2018-12-04T03:09:52.183Z,98861.00
2018-12-04T03:11:58.054Z,98870.00
2018-12-04T03:14:04.003Z,98863.00
2018-12-04T03:16:09.819Z,98874.00
2018-12-04T03:18:16.441Z,98875.00
2018-12-04T03:20:22.570Z,98884.00
2018-12-04T03:22:28.412Z,98881.00
2018-12-04T03:24:34.533Z,98888.00
2018-12-04T03:26:40.203Z,98891.00
2018-12-04T03:28:46.286Z,98895.00
2018-12-04T03:30:51.882Z,98899.00
2018-12-04T03:32:57.996Z,98904.00
2018-12-04T03:35:03.863Z,98903.00
2018-12-04T03:37:09.556Z,98907.00
2018-12-04T03:39:16.260Z,98911.00
2018-12-04T03:41:22.087Z,98912.00
2018-12-04T03:43:27.936Z,98918.00
2018-12-04T03:45:33.500Z,98934.00
2018-12-04T03:47:39.084Z,98934.00
2018-12-04T03:49:44.659Z,98942.00
2018-12-04T03:51:50.246Z,98941.00
2018-12-04T03:53:56.100Z,98952.00
2018-12-04T03:56:02.398Z,98945.00
2018-12-04T03:58:08.239Z,98942.00
2018-12-04T04:00:14.272Z,98949.00
2018-12-04T04:02:19.879Z,98941.00
2018-12-04T04:04:26.235Z,98945.00
2018-12-04T04:06:32.359Z,98956.00
2018-12-04T04:08:38.202Z,98968.00
2018-12-04T04:10:44.053Z,98968.00
2018-12-04T04:12:50.419Z,98970.00
2018-12-04T04:14:55.993Z,98974.00
2018-12-04T04:17:02.076Z,98969.00
2018-12-04T04:19:07.667Z,98972.00
2018-12-04T04:21:13.393Z,98976.00
2018-12-04T04:23:19.230Z,98986.00
2018-12-04T04:25:24.839Z,98990.00
2018-12-04T04:27:30.416Z,98981.00
2018-12-04T04:29:36.266Z,98989.00
2018-12-04T04:31:41.858Z,99001.00
2018-12-04T04:33:47.735Z,99001.00
2018-12-04T04:35:57.596Z,98996.00
2018-12-04T04:38:03.468Z,99009.00
2018-12-04T04:40:09.703Z,99007.00
2018-12-04T04:42:17.628Z,99022.00
2018-12-04T04:44:23.290Z,99019.00
2018-12-04T04:46:28.870Z,99035.00
2018-12-04T04:48:34.452Z,99032.00
2018-12-04T04:50:40.041Z,99034.00
2018-12-04T04:52:45.880Z,99041.00
2018-12-04T04:54:51.794Z,99063.00
2018-12-04T04:56:57.905Z,99055.00
2018-12-04T04:59:03.848Z,99058.00
2018-12-04T05:01:09.691Z,99068.00
2018-12-04T05:03:16.398Z,99071.00
2018-12-04T05:05:21.973Z,99074.00
2018-12-04T05:07:27.541Z,99083.00
2018-12-04T05:09:33.374Z,99085.00
2018-12-04T05:11:39.059Z,99076.00
2018-12-04T05:13:44.994Z,99082.00
2018-12-04T05:15:50.607Z,99089.00
2018-12-04T05:17:56.461Z,99093.00
2018-12-04T05:20:02.057Z,99098.00
2018-12-04T05:22:07.897Z,99097.00
2018-12-04T05:24:13.482Z,99098.00
2018-12-04T05:26:19.070Z,99113.00
2018-12-04T05:28:25.181Z,99113.00
2018-12-04T05:30:31.830Z,99111.00
2018-12-04T05:32:37.990Z,99127.00
2018-12-04T05:34:44.105Z,99127.00
2018-12-04T05:36:49.714Z,99129.00
2018-12-04T05:38:55.296Z,99137.00
2018-12-04T05:41:01.145Z,99145.00
2018-12-04T05:43:06.718Z,99152.00
2018-12-04T05:45:12.673Z,99147.00
2018-12-04T05:47:18.464Z,99156.00
2018-12-04T05:49:24.659Z,99166.00
2018-12-04T05:51:30.503Z,99179.00
2018-12-04T05:53:37.812Z,99181.00
2018-12-04T05:55:43.685Z,99175.00
2018-12-04T05:57:49.249Z,99181.00
2018-12-04T05:59:55.067Z,99194.00
2018-12-04T06:02:00.658Z,99190.00
2018-12-04T06:04:06.233Z,99180.00
2018-12-04T06:06:11.917Z,99195.00
2018-12-04T06:08:17.714Z,99200.00
2018-12-04T06:10:23.597Z,99201.00
2018-12-04T06:12:32.470Z,99202.00
2018-12-04T06:14:38.305Z,99208.00
2018-12-04T06:16:44.001Z,99216.00
2018-12-04T06:18:49.615Z,99220.00
2018-12-04T06:20:55.249Z,99215.00
2018-12-04T06:23:01.250Z,99221.00
2018-12-04T06:25:07.598Z,99230.00
2018-12-04T06:27:13.706Z,99236.00
2018-12-04T06:29:19.351Z,99236.00
2018-12-04T06:31:25.199Z,99239.00
2018-12-04T06:33:31.336Z,99240.00
2018-12-04T06:35:37.719Z,99255.00
2018-12-04T06:37:43.299Z,99256.00
2018-12-04T06:39:49.154Z,99264.00
2018-12-04T06:41:55.132Z,99269.00
2018-12-04T06:44:00.999Z,99271.00
2018-12-04T06:46:06.741Z,99280.00
2018-12-04T06:48:12.307Z,99279.00
2018-12-04T06:50:17.967Z,99284.00
2018-12-04T06:52:24.102Z,99296.00
2018-12-04T06:54:29.967Z,99309.00
2018-12-04T06:56:35.814Z,99305.00
2018-12-04T06:58:41.928Z,99310.00
2018-12-04T07:00:47.778Z,99310.00
2018-12-04T07:02:53.446Z,99325.00
2018-12-04T07:04:59.022Z,99337.00
2018-12-04T07:07:05.161Z,99327.00
2018-12-04T07:09:11.325Z,99336.00
2018-12-04T07:11:17.551Z,99342.00
2018-12-04T07:13:23.129Z,99339.00
2018-12-04T07:15:29.230Z,99347.00
2018-12-04T07:17:35.365Z,99360.00
2018-12-04T07:19:41.206Z,99364.00
2018-12-04T07:21:47.513Z,99378.00
2018-12-04T07:23:53.355Z,99375.00
2018-12-04T07:25:59.701Z,99369.00
2018-12-04T07:28:05.907Z,99382.00
2018-12-04T07:30:11.970Z,99381.00
2018-12-04T07:32:17.641Z,99394.00
2018-12-04T07:34:23.208Z,99410.00
2018-12-04T07:36:28.788Z,99412.00
2018-12-04T07:38:34.353Z,99411.00
2018-12-04T07:40:39.937Z,99417.00
2018-12-04T07:42:46.616Z,99414.00
2018-12-04T07:44:52.805Z,99427.00
2018-12-04T07:46:58.496Z,99427.00
2018-12-04T07:49:04.166Z,99433.00
2018-12-04T07:51:10.163Z,99439.00
2018-12-04T07:53:16.502Z,99443.00
2018-12-04T07:55:22.351Z,99441.00
2018-12-04T07:57:28.197Z,99444.00
2018-12-04T07:59:34.056Z,99452.00
2018-12-04T08:01:39.662Z,99454.00
2018-12-04T08:03:45.752Z,99467.00
2018-12-04T08:05:51.324Z,99474.00
2018-12-04T08:07:57.183Z,99473.00
2018-12-04T08:10:03.037Z,99483.00
2018-12-04T08:12:08.905Z,99487.00
2018-12-04T08:14:15.024Z,99493.00
2018-12-04T08:16:21.580Z,99505.00
2018-12-04T08:18:27.217Z,99504.00
2018-12-04T08:20:33.054Z,99504.00
2018-12-04T08:22:38.904Z,99516.00
2018-12-04T08:24:44.729Z,99517.00
2018-12-04T08:26:51.718Z,99526.00
2018-12-04T08:28:57.548Z,99526.00
2018-12-04T08:31:03.649Z,99536.00
2018-12-04T08:33:09.789Z,99525.00
2018-12-04T08:35:16.102Z,99535.00
2018-12-04T08:37:22.449Z,99530.00
2018-12-04T08:39:28.022Z,99533.00
2018-12-04T08:41:33.606Z,99536.00
2018-12-04T08:43:39.707Z,99524.00
2018-12-04T08:45:45.800Z,99532.00
2018-12-04T08:47:51.883Z,99542.00
2018-12-04T08:49:57.688Z,99540.00
2018-12-04T08:52:03.263Z,99554.00
2018-12-04T08:54:08.822Z,99553.00
2018-12-04T08:56:14.399Z,99562.00
2018-12-04T08:58:20.523Z,99564.00
2018-12-04T09:00:26.857Z,99572.00
2018-12-04T09:02:32.785Z,99574.00
2018-12-04T09:04:38.347Z,99576.00
2018-12-04T09:06:44.306Z,99577.00
2018-12-04T09:08:50.284Z,99588.00
2018-12-04T09:10:55.921Z,99588.00
2018-12-04T09:13:01.763Z,99592.00
2018-12-04T09:15:08.473Z,99595.00
2018-12-04T09:17:15.397Z,99604.00
2018-12-04T09:19:22.432Z,99611.00
2018-12-04T09:21:28.341Z,99608.00
2018-12-04T09:23:34.283Z,99613.00
2018-12-04T09:25:39.898Z,99625.00
2018-12-04T09:27:46.035Z,99630.00
2018-12-04T09:29:51.879Z,99634.00
2018-12-04T09:31:58.110Z,99655.00
2018-12-04T09:34:03.807Z,99651.00
2018-12-04T09:36:09.342Z,99654.00
2018-12-04T09:38:15.178Z,99657.00
2018-12-04T09:40:21.404Z,99660.00
2018-12-04T09:42:27.136Z,99666.00
2018-12-04T09:44:32.975Z,99680.00
2018-12-04T09:46:38.553Z,99679.00
2018-12-04T09:48:45.224Z,99681.00
2018-12-04T09:50:51.070Z,99690.00
2018-12-04T09:52:56.636Z,99688.00
2018-12-04T09:55:03.189Z,99694.00
2018-12-04T09:57:09.033Z,99688.00
2018-12-04T09:59:15.166Z,99698.00
2018-12-04T10:01:20.819Z,99693.00
2018-12-04T10:03:26.407Z,99700.00
2018-12-04T10:05:32.245Z,99695.00
2018-12-04T10:07:37.780Z,99712.00
2018-12-04T10:09:43.378Z,99720.00
2018-12-04T10:11:49.223Z,99727.00
2018-12-04T10:13:54.800Z,99724.00
2018-12-04T10:16:00.770Z,99717.00
2018-12-04T10:18:06.597Z,99733.00
2018-12-04T10:20:13.861Z,99735.00
2018-12-04T10:22:19.711Z,99723.00
2018-12-04T10:24:25.664Z,99720.00
2018-12-04T10:26:31.241Z,99721.00
2018-12-04T10:28:37.150Z,99727.00
2018-12-04T10:30:44.887Z,99730.00
2018-12-04T10:32:53.607Z,99730.00
2018-12-04T10:34:59.556Z,99749.00
2018-12-04T10:37:05.140Z,99737.00
2018-12-04T10:39:11.079Z,99739.00
2018-12-04T10:41:18.167Z,99744.00
2018-12-04T10:43:24.846Z,99757.00
2018-12-04T10:45:30.428Z,99752.00
2018-12-04T10:47:36.249Z,99753.00
2018-12-04T10:49:42.175Z,99755.00
2018-12-04T10:51:47.754Z,99752.00
2018-12-04T10:53:53.326Z,99757.00
2018-12-04T10:55:58.967Z,99763.00
2018-12-04T10:58:04.877Z,99761.00
2018-12-04T11:00:29.847Z,99770.00
2018-12-04T11:02:44.578Z,99771.00
2018-12-04T11:04:50.907Z,99775.00
2018-12-04T11:06:56.859Z,99778.00
2018-12-04T11:09:02.767Z,99778.00
2018-12-04T11:11:08.938Z,99784.00
2018-12-04T11:13:14.847Z,99776.00
2018-12-04T11:15:20.718Z,99779.00
2018-12-04T11:17:26.298Z,99787.00
2018-12-04T11:19:32.143Z,99789.00
2018-12-04T11:21:38.030Z,99793.00
2018-12-04T11:23:43.609Z,99785.00
2018-12-04T11:25:49.201Z,99788.00
2018-12-04T11:27:54.765Z,99790.00
2018-12-04T11:30:00.618Z,99793.00
2018-12-04T11:32:06.279Z,99796.00
2018-12-04T11:34:12.115Z,99798.00
2018-12-04T11:36:17.866Z,99806.00
2018-12-04T11:38:23.436Z,99806.00
2018-12-04T11:40:29.790Z,99808.00
2018-12-04T11:42:35.910Z,99820.00
2018-12-04T11:44:41.488Z,99820.00
2018-12-04T11:46:47.323Z,99824.00
2018-12-04T11:48:52.910Z,99824.00
2018-12-04T11:51:00.317Z,99832.00
2018-12-04T11:53:06.057Z,99828.00
2018-12-04T11:55:11.928Z,99836.00
2018-12-04T11:57:18.436Z,99839.00
2018-12-04T11:59:24.281Z,99839.00
2018-12-04T12:01:31.682Z,99836.00
2018-12-04T12:03:37.759Z,99841.00
2018-12-04T12:05:43.925Z,99842.00
2018-12-04T12:07:49.774Z,99844.00
2018-12-04T12:09:55.637Z,99854.00
2018-12-04T12:12:01.461Z,99854.00
2018-12-04T12:14:08.061Z,99846.00
2018-12-04T12:16:14.407Z,99848.00
2018-12-04T12:18:20.613Z,99851.00
2018-12-04T12:20:26.225Z,99860.00
2018-12-04T12:22:32.067Z,99855.00
2018-12-04T12:24:37.918Z,99855.00
2018-12-04T12:26:44.000Z,99862.00
2018-12-04T12:28:49.675Z,99866.00
2018-12-04T12:30:55.586Z,99853.00
2018-12-04T12:33:01.178Z,99867.00
2018-12-04T12:35:08.110Z,99858.00
2018-12-04T12:37:13.703Z,99867.00
2018-12-04T12:39:19.546Z,99862.00
2018-12-04T12:41:25.608Z,99873.00
2018-12-04T12:43:31.527Z,99862.00
2018-12-04T12:45:37.595Z,99860.00
2018-12-04T12:47:43.390Z,99868.00
2018-12-04T12:49:49.591Z,99866.00
2018-12-04T12:51:55.153Z,99878.00
2018-12-04T12:54:01.063Z,99884.00
2018-12-04T12:56:06.986Z,99888.00
2018-12-04T12:58:13.103Z,99891.00
2018-12-04T13:00:19.040Z,99896.00
2018-12-04T13:02:24.911Z,99878.00
2018-12-04T13:04:30.743Z,99900.00
2018-12-04T13:06:36.334Z,99898.00
2018-12-04T13:08:42.013Z,99899.00
2018-12-04T13:10:47.853Z,99887.00
2018-12-04T13:12:53.934Z,99905.00
2018-12-04T13:14:59.863Z,99901.00
2018-12-04T13:17:05.784Z,99907.00
2018-12-04T13:19:11.568Z,99906.00
2018-12-04T13:21:17.961Z,99906.00
2018-12-04T13:23:23.825Z,99899.00
2018-12-04T13:25:30.041Z,99898.00
2018-12-04T13:27:35.671Z,99907.00
2018-12-04T13:29:41.304Z,99909.00
2018-12-04T13:31:47.061Z,99921.00
2018-12-04T13:33:52.946Z,99920.00
2018-12-04T13:35:59.114Z,99913.00
2018-12-04T13:38:04.961Z,99924.00
2018-12-04T13:40:11.461Z,99925.00
2018-12-04T13:42:17.200Z,99927.00
2018-12-04T13:44:23.474Z,99937.00
2018-12-04T13:46:29.455Z,99926.00
2018-12-04T13:48:36.133Z,99935.00
2018-12-04T13:50:41.936Z,99949.00
2018-12-04T13:52:48.276Z,99958.00
2018-12-04T13:54:54.402Z,99946.00
2018-12-04T13:57:00.203Z,99954.00
2018-12-04T13:59:06.230Z,99966.00
2018-12-04T14:01:12.094Z,99963.00
2018-12-04T14:03:18.665Z,99975.00
2018-12-04T14:05:24.429Z,99977.00
2018-12-04T14:07:30.691Z,99983.00
2018-12-04T14:09:36.737Z,99990.00
2018-12-04T14:11:42.406Z,99991.00
2018-12-04T14:13:48.062Z,99994.00
2018-12-04T14:15:56.901Z,100003.00
2018-12-04T14:18:01.890Z,99991.00
2018-12-04T14:20:10.372Z,99999.00
2018-12-04T14:22:16.382Z,100001.00
2018-12-04T14:24:22.100Z,100004.00
2018-12-04T14:26:27.913Z,100010.00
2018-12-04T14:28:33.657Z,100010.00
2018-12-04T14:30:39.998Z,100020.00
2018-12-04T14:32:45.865Z,100023.00
2018-12-04T14:34:52.000Z,100012.00
2018-12-04T14:36:57.903Z,100016.00
2018-12-04T14:39:05.309Z,100027.00
2018-12-04T14:41:11.096Z,100027.00
2018-12-04T14:43:17.492Z,100030.00
2018-12-04T14:45:23.315Z,100040.00
2018-12-04T14:47:29.282Z,100037.00
2018-12-04T14:49:36.504Z,100036.00
2018-12-04T14:51:42.824Z,100037.00
2018-12-04T14:53:48.418Z,100042.00
2018-12-04T14:55:54.157Z,100033.00
2018-12-04T14:58:00.010Z,100036.00
2018-12-04T15:00:07.984Z,100040.00
2018-12-04T15:02:13.638Z,100051.00
2018-12-04T15:04:19.714Z,100050.00
2018-12-04T15:06:25.526Z,100059.00
2018-12-04T15:08:31.416Z,100073.00
2018-12-04T15:10:37.094Z,100087.00
2018-12-04T15:12:43.020Z,100082.00
2018-12-04T15:14:48.622Z,100090.00
2018-12-04T15:16:55.159Z,100077.00
2018-12-04T15:19:01.308Z,100088.00
2018-12-04T15:21:07.000Z,100089.00
2018-12-04T15:23:13.309Z,100078.00
2018-12-04T15:25:19.909Z,100074.00
2018-12-04T15:27:25.518Z,100085.00
2018-12-04T15:29:31.471Z,100089.00
2018-12-04T15:31:37.126Z,100103.00
2018-12-04T15:33:43.079Z,100102.00
2018-12-04T15:35:48.937Z,100109.00
2018-12-04T15:37:54.883Z,100112.00
2018-12-04T15:40:00.447Z,100108.00
2018-12-04T15:42:06.149Z,100113.00
2018-12-04T15:44:12.004Z,100111.00
2018-12-04T15:46:17.967Z,100124.00
2018-12-04T15:48:24.128Z,100132.00
2018-12-04T15:50:29.771Z,100134.00
2018-12-04T15:52:35.506Z,100130.00
2018-12-04T15:54:41.331Z,100144.00
2018-12-04T15:56:47.320Z,100157.00
2018-12-04T15:58:53.049Z,100149.00
2018-12-04T16:00:59.893Z,100151.00
2018-12-04T16:03:05.739Z,100153.00
2018-12-04T16:05:13.155Z,100151.00
2018-12-04T16:07:19.961Z,100150.00
2018-12-04T16:09:25.747Z,100158.00
2018-12-04T16:11:31.595Z,100162.00
2018-12-04T16:13:37.376Z,100157.00
2018-12-04T16:15:43.241Z,100156.00
2018-12-04T16:17:48.828Z,100158.00
2018-12-04T16:19:54.821Z,100165.00
2018-12-04T16:22:00.687Z,100167.00
2018-12-04T16:24:06.389Z,100171.00
2018-12-04T16:26:12.007Z,100172.00
2018-12-04T16:28:17.737Z,100167.00
2018-12-04T16:30:23.925Z,100168.00
2018-12-04T16:32:30.118Z,100173.00
2018-12-04T16:34:35.829Z,100181.00
2018-12-04T16:36:41.494Z,100179.00
2018-12-04T16:38:47.120Z,100187.00
2018-12-04T16:40:52.990Z,100187.00
2018-12-04T16:42:59.174Z,100184.00
2018-12-04T16:45:05.474Z,100187.00
2018-12-04T16:47:11.358Z,100183.00
2018-12-04T16:49:17.061Z,100184.00
2018-12-04T16:51:22.775Z,100181.00
2018-12-04T16:53:28.634Z,100188.00
2018-12-04T16:55:34.248Z,100191.00
2018-12-04T16:57:40.191Z,100204.00
2018-12-04T16:59:45.801Z,100203.00
2018-12-04T17:01:51.754Z,100211.00
2018-12-04T17:03:57.699Z,100206.00
2018-12-04T17:06:04.962Z,100203.00
2018-12-04T17:08:11.182Z,100204.00
2018-12-04T17:10:22.420Z,100201.00
2018-12-04T17:12:24.657Z,100197.00
2018-12-04T17:14:30.520Z,100201.00
2018-12-04T17:16:36.672Z,100192.00
2018-12-04T17:18:42.298Z,100194.00
2018-12-04T17:20:48.437Z,100203.00
2018-12-04T17:22:54.202Z,100200.00
2018-12-04T17:24:59.811Z,100203.00
2018-12-04T17:27:05.845Z,100206.00
2018-12-04T17:29:11.455Z,100214.00
2018-12-04T17:31:17.406Z,100214.00
2018-12-04T17:33:23.468Z,100221.00
2018-12-04T17:35:29.439Z,100219.00
2018-12-04T17:37:35.411Z,100220.00
2018-12-04T17:39:41.270Z,100212.00
2018-12-04T17:41:47.015Z,100229.00
2018-12-04T17:43:52.697Z,100220.00
2018-12-04T17:45:59.028Z,100223.00
2018-12-04T17:48:05.708Z,100219.00
2018-12-04T17:50:12.085Z,100224.00
2018-12-04T17:52:17.726Z,100231.00
2018-12-04T17:54:23.356Z,100232.00
2018-12-04T17:56:29.049Z,100232.00
2018-12-04T17:58:35.171Z,100223.00
2018-12-04T18:00:41.231Z,100226.00
2018-12-04T18:02:46.884Z,100231.00
2018-12-04T18:04:52.505Z,100229.00
2018-12-04T18:06:58.506Z,100228.00
2018-12-04T18:09:05.588Z,100230.00
2018-12-04T18:11:11.398Z,100247.00
2018-12-04T18:13:17.406Z,100238.00
2018-12-04T18:15:23.004Z,100243.00
2018-12-04T18:17:28.666Z,100246.00
2018-12-04T18:19:34.760Z,100242.00
2018-12-04T18:21:41.184Z,100248.00
2018-12-04T18:23:46.865Z,100245.00
2018-12-04T18:25:53.021Z,100254.00
2018-12-04T18:27:58.645Z,100263.00
2018-12-04T18:30:04.830Z,100259.00
2018-12-04T18:32:10.728Z,100263.00
2018-12-04T18:34:16.603Z,100269.00
2018-12-04T18:36:22.201Z,100260.00
2018-12-04T18:38:28.165Z,100258.00
2018-12-04T18:40:33.801Z,100250.00
2018-12-04T18:42:39.452Z,100259.00
2018-12-04T18:44:45.606Z,100266.00
2018-12-04T18:46:51.766Z,100272.00
2018-12-04T18:48:58.090Z,100274.00
2018-12-04T18:51:04.444Z,100281.00
2018-12-04T18:53:10.312Z,100282.00
2018-12-04T18:55:23.586Z,100283.00
2018-12-04T18:57:29.499Z,100286.00
2018-12-04T18:59:35.100Z,100284.00
2018-12-04T19:01:40.702Z,100296.00
2018-12-04T19:03:46.441Z,100289.00
2018-12-04T19:05:52.147Z,100299.00
2018-12-04T19:07:57.778Z,100292.00
2018-12-04T19:10:03.459Z,100290.00
2018-12-04T19:12:09.689Z,100290.00
2018-12-04T19:14:15.676Z,100286.00
2018-12-04T19:16:22.707Z,100294.00
2018-12-04T19:18:28.326Z,100292.00
2018-12-04T19:20:34.035Z,100289.00
2018-12-04T19:22:40.073Z,100295.00
2018-12-04T19:24:46.240Z,100305.00
2018-12-04T19:26:52.131Z,100309.00
2018-12-04T19:28:58.152Z,100312.00
2018-12-04T19:31:03.970Z,100311.00
2018-12-04T19:33:09.979Z,100314.00
2018-12-04T19:35:16.137Z,100311.00
2018-12-04T19:37:22.106Z,100314.00
2018-12-04T19:39:27.975Z,100331.00
2018-12-04T19:41:33.668Z,100325.00
2018-12-04T19:43:39.364Z,100319.00
2018-12-04T19:45:44.971Z,100326.00
2018-12-04T19:47:51.027Z,100330.00
2018-12-04T19:49:56.634Z,100322.00
2018-12-04T19:52:02.618Z,100333.00
2018-12-04T19:54:08.434Z,100332.00
2018-12-04T19:56:14.045Z,100331.00
2018-12-04T19:58:19.787Z,100334.00
2018-12-04T20:00:25.491Z,100342.00
2018-12-04T20:02:31.357Z,100336.00
2018-12-04T20:04:37.056Z,100347.00
2018-12-04T20:06:42.756Z,100351.00
2018-12-04T20:08:57.605Z,100349.00
2018-12-04T20:11:03.577Z,100363.00
2018-12-04T20:13:09.461Z,100367.00
2018-12-04T20:15:15.428Z,100363.00
2018-12-04T20:17:22.339Z,100362.00
2018-12-04T20:19:28.201Z,100351.00
2018-12-04T20:21:33.807Z,100349.00
2018-12-04T20:23:39.836Z,100363.00
2018-12-04T20:25:45.530Z,100351.00
2018-12-04T20:27:51.421Z,100365.00
2018-12-04T20:29:57.007Z,100357.00
2018-12-04T20:32:02.746Z,100359.00
2018-12-04T20:34:08.868Z,100364.00
2018-12-04T20:36:14.746Z,100366.00
2018-12-04T20:38:20.404Z,100369.00
2018-12-04T20:40:31.481Z,100358.00
2018-12-04T20:42:33.819Z,100369.00
2018-12-04T20:44:39.838Z,100379.00
2018-12-04T20:46:45.718Z,100374.00
2018-12-04T20:48:51.626Z,100375.00
2018-12-04T20:50:57.624Z,100365.00
2018-12-04T20:53:03.487Z,100379.00
2018-12-04T20:55:09.441Z,100388.00
2018-12-04T20:57:15.675Z,100395.00
2018-12-04T20:59:21.927Z,100395.00
2018-12-04T21:01:27.605Z,100403.00
2018-12-04T21:03:33.322Z,100397.00
2018-12-04T21:05:39.159Z,100394.00
2018-12-04T21:07:45.080Z,100389.00
2018-12-04T21:09:50.936Z,100394.00
2018-12-04T21:11:56.728Z,100396.00
2018-12-04T21:14:02.377Z,100389.00
2018-12-04T21:16:08.627Z,100394.00
2018-12-04T21:18:14.531Z,100394.00
2018-12-04T21:20:20.241Z,100390.00
2018-12-04T21:22:25.857Z,100405.00
2018-12-04T21:24:31.780Z,100401.00
2018-12-04T21:26:38.088Z,100407.00
2018-12-04T21:29:02.395Z,100398.00
2018-12-04T21:31:25.201Z,100401.00
2018-12-04T21:34:01.757Z,100409.00
2018-12-04T21:36:24.814Z,100400.00
2018-12-04T21:38:48.115Z,100384.00
2018-12-04T21:41:03.465Z,100389.00
2018-12-04T21:43:26.091Z,100395.00
2018-12-04T21:45:48.987Z,100392.00
2018-12-04T21:47:59.520Z,100385.00
2018-12-04T21:50:05.739Z,100389.00
2018-12-04T21:52:11.612Z,100395.00
2018-12-04T21:54:17.669Z,100400.00
2018-12-04T21:56:23.541Z,100390.00
2018-12-04T21:58:30.005Z,100404.00
2018-12-04T22:00:36.600Z,100406.00
2018-12-04T22:02:42.209Z,100408.00
2018-12-04T22:04:47.828Z,100400.00
2018-12-04T22:06:53.428Z,100404.00
2018-12-04T22:08:59.407Z,100413.00
2018-12-04T22:11:05.044Z,100406.00
2018-12-04T22:13:11.272Z,100410.00
2018-12-04T22:15:17.161Z,100409.00
2018-12-04T22:17:22.769Z,100407.00
2018-12-04T22:19:28.844Z,100403.00
2018-12-04T22:21:34.695Z,100395.00
2018-12-04T22:23:40.309Z,100402.00
2018-12-04T22:25:46.165Z,100399.00
2018-12-04T22:27:51.780Z,100406.00
2018-12-04T22:29:58.094Z,100406.00
2018-12-04T22:32:03.728Z,100408.00
2018-12-04T22:34:09.421Z,100406.00
2018-12-04T22:36:15.123Z,100417.00
2018-12-04T22:38:20.968Z,100416.00
2018-12-04T22:40:26.576Z,100425.00
2018-12-04T22:42:32.379Z,100425.00
2018-12-04T22:44:38.458Z,100417.00
2018-12-04T22:46:44.155Z,100427.00
2018-12-04T22:48:49.994Z,100422.00
2018-12-04T22:50:55.741Z,100422.00
2018-12-04T22:53:01.897Z,100422.00
2018-12-04T22:55:07.963Z,100432.00
2018-12-04T22:57:13.811Z,100424.00
2018-12-04T22:59:19.549Z,100423.00
2018-12-04T23:01:42.415Z,100429.00
2018-12-04T23:03:48.256Z,100421.00
2018-12-04T23:05:53.962Z,100420.00
2018-12-04T23:07:59.557Z,100425.00
2018-12-04T23:10:06.216Z,100421.00
2018-12-04T23:12:12.014Z,100416.00
2018-12-04T23:14:17.826Z,100407.00
2018-12-04T23:16:23.613Z,100415.00
2018-12-04T23:18:29.295Z,100416.00
2018-12-04T23:20:35.064Z,100416.00
2018-12-04T23:22:40.659Z,100409.00
2018-12-04T23:24:46.267Z,100417.00
2018-12-04T23:26:51.973Z,100406.00
2018-12-04T23:28:57.650Z,100407.00
2018-12-04T23:31:03.506Z,100419.00
2018-12-04T23:33:09.393Z,100403.00
2018-12-04T23:35:15.243Z,100418.00
2018-12-04T23:37:20.842Z,100412.00
2018-12-04T23:39:26.745Z,100419.00
2018-12-04T23:41:32.346Z,100411.00
2018-12-04T23:43:37.940Z,100413.00
2018-12-04T23:45:44.275Z,100415.00
2018-12-04T23:47:49.968Z,100417.00
2018-12-04T23:49:55.808Z,100417.00
2018-12-04T23:52:01.654Z,100403.00
2018-12-04T23:54:07.637Z,100396.00
2018-12-04T23:56:13.254Z,100397.00
2018-12-04T23:58:19.195Z,100397.00
